Time;durP1;ratioP1;P1;durP2;ratioP2;P2;SDS_P1;SDS_P2;PMS_P1;PMS_P2;Temp;Humidity;BMP_temperature;BMP_pressure;BME280_temperature;BME280_humidity;BME280_pressure;Samples;Min_cycle;Max_cycle;Signal;HPM_P1;HPM_P2
2023/05/18 00:01:32;;;;;;;15.10;4.90;;;;;;;;;;5112660;28;20102;-77
2023/05/18 00:03:58;;;;;;;19.00;5.55;;;;;;;;;;5111678;28;20064;-77
2023/05/18 00:06:27;;;;;;;11.02;4.45;;;;;;;;;;5111412;28;20023;-77
2023/05/18 00:08:52;;;;;;;16.27;5.90;;;;;;;;;;5110365;28;20011;-78
2023/05/18 00:11:17;;;;;;;12.10;4.80;;;;;;;;;;5112453;28;20077;-79
2023/05/18 00:13:43;;;;;;;15.00;4.80;;;;;;;;;;5110515;28;20027;-77
2023/05/18 00:16:10;;;;;;;10.85;5.18;;;;;;;;;;5105990;28;20474;-77
2023/05/18 00:18:36;;;;;;;18.15;5.93;;;;;;;;;;5104185;28;20051;-78
2023/05/18 00:21:01;;;;;;;14.45;5.53;;;;;;;;;;5108331;28;20066;-77
2023/05/18 00:23:31;;;;;;;10.50;4.95;;;;;;;;;;5108185;28;20434;-77
2023/05/18 00:26:00;;;;;;;19.02;6.07;;;;;;;;;;5104799;28;20030;-79
2023/05/18 00:28:25;;;;;;;13.98;5.53;;;;;;;;;;5093402;28;20020;-78
2023/05/18 00:30:50;;;;;;;12.10;4.72;;;;;;;;;;5092250;28;20035;-78
2023/05/18 00:33:16;;;;;;;10.20;4.75;;;;;;;;;;5095691;28;20027;-78
2023/05/18 00:35:41;;;;;;;13.32;5.32;;;;;;;;;;5103861;28;20019;-78
2023/05/18 00:38:07;;;;;;;10.85;4.63;;;;;;;;;;5092130;28;20469;-78
2023/05/18 00:40:32;;;;;;;14.05;4.53;;;;;;;;;;5058564;28;20032;-78
2023/05/18 00:42:59;;;;;;;11.43;4.82;;;;;;;;;;5077013;28;20437;-78
2023/05/18 00:45:25;;;;;;;12.00;5.03;;;;;;;;;;5062859;28;20038;-78
2023/05/18 00:47:50;;;;;;;15.57;6.53;;;;;;;;;;5084103;28;20441;-78
2023/05/18 00:50:16;;;;;;;19.13;5.00;;;;;;;;;;5060306;28;20016;-78
2023/05/18 00:52:42;;;;;;;14.32;5.55;;;;;;;;;;5068732;28;20065;-78
2023/05/18 00:55:08;;;;;;;17.45;5.15;;;;;;;;;;5069494;28;20069;-78
2023/05/18 00:57:35;;;;;;;12.73;4.35;;;;;;;;;;5068210;28;20036;-78
2023/05/18 01:00:01;;;;;;;13.85;5.70;;;;;;;;;;5073132;28;20019;-77
2023/05/18 01:02:29;;;;;;;8.93;4.72;;;;;;;;;;5072322;28;20131;-78
2023/05/18 01:04:54;;;;;;;16.08;5.90;;;;;;;;;;5052076;28;20154;-79
2023/05/18 01:07:25;;;;;;;13.57;5.70;;;;;;;;;;5078799;28;20901;-77
2023/05/18 01:09:51;;;;;;;13.90;5.45;;;;;;;;;;5076637;28;20028;-79
2023/05/18 01:12:18;;;;;;;12.85;5.22;;;;;;;;;;5068918;28;20086;-78
2023/05/18 01:14:53;;;;;;;13.40;5.25;;;;;;;;;;5069693;28;20020;-78
2023/05/18 01:17:22;;;;;;;9.85;4.70;;;;;;;;;;5107869;28;20015;-78
2023/05/18 01:19:50;;;;;;;18.88;6.50;;;;;;;;;;5067737;28;20961;-78
2023/05/18 01:22:22;;;;;;;10.90;4.85;;;;;;;;;;5048720;28;20096;-79
2023/05/18 01:24:47;;;;;;;16.05;5.72;;;;;;;;;;5068234;28;20016;-79
2023/05/18 01:27:16;;;;;;;10.82;4.75;;;;;;;;;;5072908;28;20038;-78
2023/05/18 01:29:43;;;;;;;11.07;5.32;;;;;;;;;;5073563;28;20027;-78
2023/05/18 01:32:09;;;;;;;10.70;5.13;;;;;;;;;;5069115;28;20028;-78
2023/05/18 01:34:34;;;;;;;13.25;4.45;;;;;;;;;;5057398;28;20062;-78
2023/05/18 01:37:00;;;;;;;15.13;5.93;;;;;;;;;;5068715;28;20027;-79
2023/05/18 01:39:25;;;;;;;15.95;5.20;;;;;;;;;;5067985;28;20019;-78
2023/05/18 01:41:53;;;;;;;16.52;5.38;;;;;;;;;;5069608;28;21419;-79
2023/05/18 01:44:31;;;;;;;14.68;4.97;;;;;;;;;;5062117;28;20031;-78
2023/05/18 01:47:00;;;;;;;18.92;5.70;;;;;;;;;;5054510;28;20024;-79
2023/05/18 01:49:34;;;;;;;14.93;5.45;;;;;;;;;;5075395;28;20073;-78
2023/05/18 01:52:03;;;;;;;10.88;4.95;;;;;;;;;;5050996;28;20105;-79
2023/05/18 01:54:29;;;;;;;16.73;6.40;;;;;;;;;;5067089;28;20034;-78
2023/05/18 01:56:56;;;;;;;16.05;5.68;;;;;;;;;;5067107;28;20021;-78
2023/05/18 01:59:22;;;;;;;15.45;5.28;;;;;;;;;;5050261;28;20031;-78
2023/05/18 02:01:48;;;;;;;11.30;5.10;;;;;;;;;;5074805;28;20055;-77
2023/05/18 02:04:13;;;;;;;15.20;5.65;;;;;;;;;;5078854;28;20108;-78
2023/05/18 02:06:39;;;;;;;15.35;5.35;;;;;;;;;;5074982;28;20828;-77
2023/05/18 02:09:04;;;;;;;10.60;5.32;;;;;;;;;;5045511;28;20857;-78
2023/05/18 02:11:30;;;;;;;13.73;5.53;;;;;;;;;;5072597;28;20028;-78
2023/05/18 02:13:55;;;;;;;25.50;6.15;;;;;;;;;;5051053;28;20027;-79
2023/05/18 02:16:20;;;;;;;12.90;5.53;;;;;;;;;;5062691;28;20866;-79
2023/05/18 02:18:46;;;;;;;16.13;5.60;;;;;;;;;;5066084;28;20081;-79
2023/05/18 02:21:12;;;;;;;13.40;5.97;;;;;;;;;;5071792;28;20099;-78
2023/05/18 02:23:37;;;;;;;16.17;5.95;;;;;;;;;;5053188;28;20083;-78
2023/05/18 02:26:03;;;;;;;11.18;5.45;;;;;;;;;;5078016;28;20942;-79
2023/05/18 02:28:28;;;;;;;12.55;5.47;;;;;;;;;;5074937;28;20032;-79
2023/05/18 02:30:53;;;;;;;21.05;6.18;;;;;;;;;;5071184;28;20870;-80
2023/05/18 02:33:24;;;;;;;12.27;5.63;;;;;;;;;;5066137;28;20071;-79
2023/05/18 02:35:51;;;;;;;16.65;5.60;;;;;;;;;;5068957;28;20162;-80
2023/05/18 02:38:16;;;;;;;16.10;4.93;;;;;;;;;;5066489;28;20016;-80
2023/05/18 02:40:41;;;;;;;12.98;5.28;;;;;;;;;;5069823;28;20080;-80
2023/05/18 02:43:06;;;;;;;16.50;6.10;;;;;;;;;;5079199;28;20034;-79
2023/05/18 02:45:32;;;;;;;12.70;5.53;;;;;;;;;;5061312;28;21406;-79
2023/05/18 02:47:57;;;;;;;10.98;5.47;;;;;;;;;;5079642;28;20899;-80
2023/05/18 02:50:22;;;;;;;18.95;5.95;;;;;;;;;;5057645;28;20083;-79
2023/05/18 02:52:48;;;;;;;10.70;5.22;;;;;;;;;;5057043;28;20024;-79
2023/05/18 02:55:14;;;;;;;14.50;5.63;;;;;;;;;;5069287;28;20027;-78
2023/05/18 02:57:45;;;;;;;15.95;5.38;;;;;;;;;;5060050;28;20030;-78
2023/05/18 03:00:11;;;;;;;11.18;5.43;;;;;;;;;;5075826;28;20095;-78
2023/05/18 03:02:37;;;;;;;16.15;6.47;;;;;;;;;;5070515;28;20853;-79
2023/05/18 03:05:04;;;;;;;17.02;5.50;;;;;;;;;;5071760;28;20012;-78
2023/05/18 03:07:31;;;;;;;14.00;5.50;;;;;;;;;;5091725;28;20024;-79
2023/05/18 03:09:57;;;;;;;11.27;4.65;;;;;;;;;;5069694;28;20024;-79
2023/05/18 03:12:22;;;;;;;13.88;5.03;;;;;;;;;;5065215;28;20151;-78
2023/05/18 03:14:47;;;;;;;9.98;5.50;;;;;;;;;;5072207;28;20028;-79
2023/05/18 03:17:13;;;;;;;15.52;6.88;;;;;;;;;;5069590;28;20047;-79
2023/05/18 03:19:39;;;;;;;14.30;6.22;;;;;;;;;;5062607;28;20031;-78
2023/05/18 03:22:04;;;;;;;10.45;6.60;;;;;;;;;;5071952;28;20035;-78
2023/05/18 03:24:38;;;;;;;11.52;6.10;;;;;;;;;;5083302;28;20028;-78
2023/05/18 03:27:04;;;;;;;16.65;5.90;;;;;;;;;;5081873;28;20110;-77
2023/05/18 03:29:29;;;;;;;11.38;5.47;;;;;;;;;;5064369;28;20853;-77
2023/05/18 03:31:55;;;;;;;15.65;5.93;;;;;;;;;;5077128;28;20085;-78
2023/05/18 03:34:20;;;;;;;14.02;7.07;;;;;;;;;;5056599;28;20046;-78
2023/05/18 03:36:46;;;;;;;14.45;6.18;;;;;;;;;;5067346;28;20885;-77
2023/05/18 03:39:11;;;;;;;15.45;6.80;;;;;;;;;;5070875;28;20909;-78
2023/05/18 03:41:37;;;;;;;14.00;6.75;;;;;;;;;;5073668;28;20052;-77
2023/05/18 03:44:02;;;;;;;18.02;5.43;;;;;;;;;;5075066;28;20016;-78
2023/05/18 03:46:28;;;;;;;12.52;6.45;;;;;;;;;;5055485;28;20062;-78
2023/05/18 03:48:53;;;;;;;16.65;5.90;;;;;;;;;;5074503;28;20089;-78
2023/05/18 03:51:18;;;;;;;15.50;6.10;;;;;;;;;;5073125;28;20016;-77
2023/05/18 03:53:44;;;;;;;15.73;6.43;;;;;;;;;;5062146;28;20754;-78
2023/05/18 03:56:09;;;;;;;16.00;6.35;;;;;;;;;;5073992;28;20152;-78
2023/05/18 03:58:34;;;;;;;13.38;5.85;;;;;;;;;;5085231;28;20130;-77
2023/05/18 04:01:00;;;;;;;14.32;6.18;;;;;;;;;;5101080;28;20031;-77
2023/05/18 04:03:25;;;;;;;13.48;6.20;;;;;;;;;;5097156;28;20020;-77
2023/05/18 04:05:52;;;;;;;14.88;7.43;;;;;;;;;;5091089;28;20016;-77
2023/05/18 04:08:18;;;;;;;10.00;5.57;;;;;;;;;;5100267;28;20024;-77
2023/05/18 04:10:43;;;;;;;11.02;5.85;;;;;;;;;;5094893;28;20046;-77
2023/05/18 04:13:09;;;;;;;14.07;5.95;;;;;;;;;;5107044;28;20023;-79
2023/05/18 04:15:35;;;;;;;15.90;6.40;;;;;;;;;;5092483;28;20038;-78
2023/05/18 04:18:00;;;;;;;16.08;6.97;;;;;;;;;;5093592;28;20441;-79
2023/05/18 04:20:27;;;;;;;11.60;6.85;;;;;;;;;;5106708;28;20080;-78
2023/05/18 04:22:52;;;;;;;17.80;6.63;;;;;;;;;;5112611;28;20035;-79
2023/05/18 04:25:19;;;;;;;13.40;7.50;;;;;;;;;;5112479;28;20424;-78
2023/05/18 04:27:44;;;;;;;17.40;7.00;;;;;;;;;;5112605;28;20054;-78
2023/05/18 04:30:10;;;;;;;14.18;6.57;;;;;;;;;;5112940;28;20470;-78
2023/05/18 04:32:36;;;;;;;23.63;7.65;;;;;;;;;;5095047;28;20031;-78
2023/05/18 04:35:05;;;;;;;15.93;7.13;;;;;;;;;;5106186;28;20036;-78
2023/05/18 04:37:31;;;;;;;14.10;6.85;;;;;;;;;;5074774;28;20021;-78
2023/05/18 04:39:57;;;;;;;12.40;6.38;;;;;;;;;;5092412;28;20020;-79
2023/05/18 04:42:22;;;;;;;14.68;7.32;;;;;;;;;;5080096;28;20026;-82
2023/05/18 04:44:51;;;;;;;14.13;6.32;;;;;;;;;;5081706;28;20024;-80
2023/05/18 04:47:16;;;;;;;12.23;5.95;;;;;;;;;;5101054;28;20043;-81
2023/05/18 04:49:42;;;;;;;15.70;7.35;;;;;;;;;;5102161;28;20052;-80
2023/05/18 04:52:09;;;;;;;10.90;6.93;;;;;;;;;;5100470;28;20007;-80
2023/05/18 04:54:34;;;;;;;12.60;6.05;;;;;;;;;;5095070;28;20024;-81
2023/05/18 04:57:00;;;;;;;12.00;6.50;;;;;;;;;;5099874;28;20039;-79
2023/05/18 04:59:27;;;;;;;12.35;6.53;;;;;;;;;;5094883;28;20024;-81
2023/05/18 05:01:53;;;;;;;14.55;6.40;;;;;;;;;;5099463;28;20081;-80
2023/05/18 05:04:19;;;;;;;12.38;6.35;;;;;;;;;;5107863;28;20028;-79
2023/05/18 05:06:45;;;;;;;12.70;7.25;;;;;;;;;;5102910;28;20020;-77
2023/05/18 05:09:12;;;;;;;13.15;7.10;;;;;;;;;;5097542;28;20020;-77
2023/05/18 05:11:38;;;;;;;14.00;7.15;;;;;;;;;;5095499;28;20053;-76
2023/05/18 05:14:03;;;;;;;13.23;6.85;;;;;;;;;;5095284;28;20081;-80
2023/05/18 05:16:28;;;;;;;16.30;6.82;;;;;;;;;;5104827;28;20027;-78
2023/05/18 05:18:54;;;;;;;19.10;7.38;;;;;;;;;;5096587;28;20484;-79
2023/05/18 05:21:19;;;;;;;12.48;6.80;;;;;;;;;;5099594;28;21295;-81
2023/05/18 05:23:45;;;;;;;19.25;7.28;;;;;;;;;;5104837;28;20071;-80
2023/05/18 05:26:10;;;;;;;17.65;7.75;;;;;;;;;;5107906;28;20059;-79
2023/05/18 05:28:35;;;;;;;18.73;6.82;;;;;;;;;;5096250;28;20036;-83
2023/05/18 05:31:01;;;;;;;15.70;7.00;;;;;;;;;;5108631;28;20051;-78
2023/05/18 05:33:26;;;;;;;15.00;7.10;;;;;;;;;;5102439;28;20023;-77
2023/05/18 05:35:51;;;;;;;12.60;6.90;;;;;;;;;;5106311;28;20030;-80
2023/05/18 05:38:17;;;;;;;15.70;6.95;;;;;;;;;;5111320;28;20020;-77
2023/05/18 05:40:42;;;;;;;12.00;7.55;;;;;;;;;;5102209;28;20037;-78
2023/05/18 05:43:07;;;;;;;21.98;7.75;;;;;;;;;;5100100;28;20458;-78
2023/05/18 05:45:33;;;;;;;12.23;6.43;;;;;;;;;;5093114;28;20023;-80
2023/05/18 05:47:58;;;;;;;18.50;7.45;;;;;;;;;;5104528;28;20390;-79
2023/05/18 05:50:23;;;;;;;14.32;6.28;;;;;;;;;;5097455;28;20047;-77
2023/05/18 05:52:49;;;;;;;16.98;6.70;;;;;;;;;;5099137;28;20394;-78
2023/05/18 05:55:14;;;;;;;24.58;7.20;;;;;;;;;;5103993;28;20027;-79
2023/05/18 05:57:41;;;;;;;15.45;7.05;;;;;;;;;;5104139;28;20028;-82
2023/05/18 06:00:09;;;;;;;11.02;6.72;;;;;;;;;;5105080;28;20478;-81
2023/05/18 06:02:34;;;;;;;16.13;6.57;;;;;;;;;;5105803;28;20073;-78
2023/05/18 06:04:59;;;;;;;17.88;7.70;;;;;;;;;;5101109;28;20016;-78
2023/05/18 06:07:24;;;;;;;13.70;6.57;;;;;;;;;;5101377;28;20478;-84
2023/05/18 06:09:50;;;;;;;14.38;7.63;;;;;;;;;;5113249;28;20031;-79
2023/05/18 06:12:15;;;;;;;14.75;6.65;;;;;;;;;;5109449;28;20111;-72
2023/05/18 06:14:40;;;;;;;13.35;6.82;;;;;;;;;;5081127;28;20028;-77
2023/05/18 06:17:06;;;;;;;28.02;7.20;;;;;;;;;;5095096;28;20032;-80
2023/05/18 06:19:32;;;;;;;17.95;6.95;;;;;;;;;;5111437;28;20030;-78
2023/05/18 06:21:57;;;;;;;12.38;6.50;;;;;;;;;;5099767;28;20157;-78
2023/05/18 06:24:22;;;;;;;21.88;6.63;;;;;;;;;;5102332;28;20525;-78
2023/05/18 06:26:48;;;;;;;11.07;6.38;;;;;;;;;;5085587;28;20028;-77
2023/05/18 06:29:13;;;;;;;12.93;5.63;;;;;;;;;;5094734;28;20077;-80
2023/05/18 06:31:39;;;;;;;12.40;6.35;;;;;;;;;;5110465;28;20019;-78
2023/05/18 06:34:04;;;;;;;14.25;5.93;;;;;;;;;;5105291;28;20465;-78
2023/05/18 06:36:30;;;;;;;16.50;6.65;;;;;;;;;;5097118;28;20496;-77
2023/05/18 06:38:56;;;;;;;12.77;6.85;;;;;;;;;;5105029;28;20035;-79
2023/05/18 06:41:21;;;;;;;19.48;7.45;;;;;;;;;;5109283;28;20032;-79
2023/05/18 06:43:47;;;;;;;13.20;7.00;;;;;;;;;;5113084;28;20026;-78
2023/05/18 06:46:25;;;;;;;11.57;6.22;;;;;;;;;;5111183;28;20020;-78
2023/05/18 06:48:50;;;;;;;15.20;6.60;;;;;;;;;;5107571;28;20026;-78
2023/05/18 06:51:16;;;;;;;13.82;6.05;;;;;;;;;;5108302;28;20032;-78
2023/05/18 06:53:41;;;;;;;17.13;6.80;;;;;;;;;;5112936;28;20128;-78
2023/05/18 06:56:06;;;;;;;17.58;6.63;;;;;;;;;;5095919;28;20024;-78
2023/05/18 06:58:33;;;;;;;17.55;7.15;;;;;;;;;;5113203;28;20030;-78
2023/05/18 07:00:58;;;;;;;10.95;6.38;;;;;;;;;;5108490;28;20443;-78
2023/05/18 07:03:24;;;;;;;16.90;6.88;;;;;;;;;;5082088;28;20028;-82
2023/05/18 07:05:49;;;;;;;13.65;6.75;;;;;;;;;;5109741;28;20092;-82
2023/05/18 07:08:14;;;;;;;13.50;5.88;;;;;;;;;;5107086;28;20051;-82
2023/05/18 07:10:40;;;;;;;17.73;7.80;;;;;;;;;;5105948;28;20465;-79
2023/05/18 07:13:05;;;;;;;11.52;7.10;;;;;;;;;;5109325;28;20031;-80
2023/05/18 07:15:30;;;;;;;11.25;5.93;;;;;;;;;;5113863;28;20046;-80
2023/05/18 07:17:56;;;;;;;9.35;6.47;;;;;;;;;;5105749;28;20040;-79
2023/05/18 07:20:21;;;;;;;11.05;6.78;;;;;;;;;;5106616;28;20019;-79
2023/05/18 07:22:46;;;;;;;12.10;6.57;;;;;;;;;;5105800;28;20485;-80
2023/05/18 07:25:12;;;;;;;16.40;7.07;;;;;;;;;;5099451;28;20066;-83
2023/05/18 07:27:37;;;;;;;13.48;6.80;;;;;;;;;;5104182;28;20496;-80
2023/05/18 07:30:02;;;;;;;12.73;6.70;;;;;;;;;;5113424;28;20024;-79
2023/05/18 07:32:28;;;;;;;17.42;6.75;;;;;;;;;;5103527;28;20473;-82
2023/05/18 07:34:53;;;;;;;9.48;6.35;;;;;;;;;;5108295;28;20012;-82
2023/05/18 07:37:18;;;;;;;11.70;6.15;;;;;;;;;;5094008;28;20019;-84
2023/05/18 07:39:43;;;;;;;17.45;6.63;;;;;;;;;;5099854;28;20099;-80
2023/05/18 07:42:10;;;;;;;27.35;7.25;;;;;;;;;;5104089;28;20472;-81
2023/05/18 07:44:35;;;;;;;12.43;6.40;;;;;;;;;;5110559;28;20032;-80
2023/05/18 07:47:00;;;;;;;17.73;6.57;;;;;;;;;;5113448;28;20042;-79
2023/05/18 07:49:25;;;;;;;17.92;6.45;;;;;;;;;;5081061;28;20032;-81
2023/05/18 07:51:51;;;;;;;14.88;5.88;;;;;;;;;;5104224;28;20533;-80
2023/05/18 07:54:16;;;;;;;12.25;6.45;;;;;;;;;;5111871;28;20021;-79
2023/05/18 07:56:43;;;;;;;12.35;6.25;;;;;;;;;;5113608;28;20027;-82
2023/05/18 07:59:08;;;;;;;16.77;6.82;;;;;;;;;;5113691;28;20016;-81
2023/05/18 08:01:34;;;;;;;22.23;7.10;;;;;;;;;;5112719;28;20094;-81
2023/05/18 08:03:59;;;;;;;9.88;6.18;;;;;;;;;;5113404;28;20068;-81
2023/05/18 08:06:24;;;;;;;11.73;7.22;;;;;;;;;;5113360;28;20023;-78
2023/05/18 08:08:50;;;;;;;17.27;6.90;;;;;;;;;;5113058;28;20156;-80
2023/05/18 08:11:15;;;;;;;17.45;7.28;;;;;;;;;;5113750;28;20027;-84
2023/05/18 08:13:41;;;;;;;15.13;6.63;;;;;;;;;;5112364;28;20031;-82
2023/05/18 08:16:06;;;;;;;17.65;7.13;;;;;;;;;;5099473;28;20020;-80
2023/05/18 08:18:31;;;;;;;16.13;6.03;;;;;;;;;;5113035;28;20131;-81
2023/05/18 08:20:57;;;;;;;16.45;7.07;;;;;;;;;;5092685;28;20440;-82
2023/05/18 08:23:25;;;;;;;11.30;5.78;;;;;;;;;;5094386;28;20035;-80
2023/05/18 08:25:50;;;;;;;9.90;5.75;;;;;;;;;;5055639;28;20900;-78
2023/05/18 08:28:16;;;;;;;9.98;5.90;;;;;;;;;;5057065;28;20055;-79
2023/05/18 08:30:41;;;;;;;10.68;5.30;;;;;;;;;;5066411;28;20867;-82
2023/05/18 08:33:06;;;;;;;10.88;5.38;;;;;;;;;;5081238;28;20031;-81
2023/05/18 08:35:32;;;;;;;9.13;5.50;;;;;;;;;;5055339;28;20035;-85
2023/05/18 08:37:57;;;;;;;12.93;5.95;;;;;;;;;;5081144;28;20828;-78
2023/05/18 08:40:25;;;;;;;13.35;5.97;;;;;;;;;;5083350;28;20988;-77
2023/05/18 08:42:57;;;;;;;11.35;5.55;;;;;;;;;;5069106;28;20027;-80
2023/05/18 08:45:29;;;;;;;9.43;4.88;;;;;;;;;;5084371;28;20038;-85
2023/05/18 08:47:55;;;;;;;15.55;6.35;;;;;;;;;;5075932;28;20138;-84
2023/05/18 08:50:20;;;;;;;16.88;5.70;;;;;;;;;;5046417;28;20746;-78
2023/05/18 08:52:53;;;;;;;13.63;5.88;;;;;;;;;;5051849;28;20086;-81
2023/05/18 08:55:19;;;;;;;11.82;5.72;;;;;;;;;;5075571;28;20057;-79
2023/05/18 08:57:49;;;;;;;10.63;5.03;;;;;;;;;;5073035;28;20028;-83
2023/05/18 09:00:14;;;;;;;8.77;5.35;;;;;;;;;;5077636;28;20879;-82
2023/05/18 09:02:40;;;;;;;9.90;5.60;;;;;;;;;;5074621;28;20066;-81
2023/05/18 09:05:06;;;;;;;8.82;5.57;;;;;;;;;;5064411;28;20061;-79
2023/05/18 09:07:31;;;;;;;8.35;5.07;;;;;;;;;;5069198;28;20026;-77
2023/05/18 09:09:57;;;;;;;10.60;5.10;;;;;;;;;;5074818;28;20019;-80
2023/05/18 09:12:22;;;;;;;11.05;4.30;;;;;;;;;;5076434;28;21362;-79
2023/05/18 09:14:47;;;;;;;14.35;4.43;;;;;;;;;;5071207;28;20050;-73
2023/05/18 09:17:13;;;;;;;7.32;4.47;;;;;;;;;;5068132;28;20051;-80
2023/05/18 09:19:38;;;;;;;11.80;5.50;;;;;;;;;;5071107;28;20065;-78
2023/05/18 09:22:03;;;;;;;11.73;5.20;;;;;;;;;;5076294;28;20100;-83
2023/05/18 09:24:29;;;;;;;8.13;4.75;;;;;;;;;;5060309;28;20929;-77
2023/05/18 09:26:54;;;;;;;11.52;4.35;;;;;;;;;;5064359;28;20032;-73
2023/05/18 09:29:20;;;;;;;11.13;4.50;;;;;;;;;;5064507;28;20032;-74
2023/05/18 09:31:46;;;;;;;8.45;4.72;;;;;;;;;;5066103;28;20974;-76
2023/05/18 09:34:12;;;;;;;11.27;4.97;;;;;;;;;;5064964;28;20066;-78
2023/05/18 09:36:37;;;;;;;11.10;5.45;;;;;;;;;;5061309;28;20533;-76
2023/05/18 09:39:07;;;;;;;11.40;4.85;;;;;;;;;;5058441;28;20073;-76
2023/05/18 09:41:32;;;;;;;11.77;5.30;;;;;;;;;;5048795;28;20827;-77
2023/05/18 09:43:57;;;;;;;10.25;4.82;;;;;;;;;;5066400;28;20027;-77
2023/05/18 09:46:23;;;;;;;8.77;4.75;;;;;;;;;;5064324;28;20027;-75
2023/05/18 09:48:50;;;;;;;16.67;5.40;;;;;;;;;;5065421;28;20078;-71
2023/05/18 09:51:16;;;;;;;7.70;4.57;;;;;;;;;;5060475;28;20027;-78
2023/05/18 09:53:56;;;;;;;17.15;5.22;;;;;;;;;;5064380;28;20052;-74
2023/05/18 09:56:21;;;;;;;14.32;5.63;;;;;;;;;;5062993;28;20024;-79
2023/05/18 09:58:47;;;;;;;13.25;5.38;;;;;;;;;;5065753;28;20858;-76
2023/05/18 10:01:12;;;;;;;13.95;5.88;;;;;;;;;;5065551;28;20028;-76
2023/05/18 10:03:38;;;;;;;12.43;5.60;;;;;;;;;;5063442;28;20024;-76
2023/05/18 10:06:04;;;;;;;24.73;5.63;;;;;;;;;;5062068;28;20008;-76
2023/05/18 10:08:29;;;;;;;11.43;5.78;;;;;;;;;;5065439;28;20034;-76
2023/05/18 10:10:55;;;;;;;10.15;4.85;;;;;;;;;;5062629;28;20015;-74
2023/05/18 10:13:20;;;;;;;8.88;5.32;;;;;;;;;;5062314;28;20039;-76
2023/05/18 10:15:47;;;;;;;15.70;6.00;;;;;;;;;;5065838;28;20027;-76
2023/05/18 10:18:15;;;;;;;12.55;6.15;;;;;;;;;;5064365;28;20023;-77
2023/05/18 10:20:41;;;;;;;10.50;5.20;;;;;;;;;;5047615;28;20745;-77
2023/05/18 10:23:06;;;;;;;10.50;5.10;;;;;;;;;;5064873;28;20108;-76
2023/05/18 10:25:32;;;;;;;10.32;4.75;;;;;;;;;;5063690;28;20024;-75
2023/05/18 10:27:59;;;;;;;10.75;5.18;;;;;;;;;;5063236;28;20982;-75
2023/05/18 10:30:25;;;;;;;9.57;4.28;;;;;;;;;;5046796;28;20035;-76
2023/05/18 10:32:51;;;;;;;12.35;4.93;;;;;;;;;;5057305;28;20825;-75
2023/05/18 10:35:17;;;;;;;13.02;5.80;;;;;;;;;;5061673;28;20024;-77
2023/05/18 10:37:46;;;;;;;11.05;4.85;;;;;;;;;;5061006;28;20026;-74
2023/05/18 10:40:12;;;;;;;21.67;5.57;;;;;;;;;;5059583;28;20216;-76
2023/05/18 10:42:38;;;;;;;21.25;5.90;;;;;;;;;;5067111;28;20020;-77
2023/05/18 10:45:05;;;;;;;13.85;5.15;;;;;;;;;;5067644;28;20035;-74
2023/05/18 10:47:31;;;;;;;12.27;4.97;;;;;;;;;;5065350;28;20020;-76
2023/05/18 10:50:00;;;;;;;7.85;4.35;;;;;;;;;;5058357;28;20084;-76
2023/05/18 10:52:30;;;;;;;8.63;4.47;;;;;;;;;;5062260;28;20220;-77
2023/05/18 10:54:57;;;;;;;8.07;4.70;;;;;;;;;;5063301;28;20070;-75
2023/05/18 10:57:22;;;;;;;13.05;4.85;;;;;;;;;;5062327;28;20020;-68
2023/05/18 10:59:48;;;;;;;6.97;4.20;;;;;;;;;;5065310;28;20120;-77
2023/05/18 11:02:16;;;;;;;18.80;5.05;;;;;;;;;;5070950;28;20019;-77
2023/05/18 11:04:41;;;;;;;10.88;5.03;;;;;;;;;;5049985;28;20062;-76
2023/05/18 11:07:10;;;;;;;8.85;4.90;;;;;;;;;;5071510;28;20793;-77
2023/05/18 11:09:35;;;;;;;20.17;5.57;;;;;;;;;;5060037;28;20897;-77
2023/05/18 11:12:01;;;;;;;9.43;4.80;;;;;;;;;;5067270;28;20138;-76
2023/05/18 11:14:28;;;;;;;12.57;5.22;;;;;;;;;;5049139;28;20027;-77
2023/05/18 11:16:53;;;;;;;11.25;4.78;;;;;;;;;;5068154;28;20427;-77
2023/05/18 11:19:23;;;;;;;9.38;5.00;;;;;;;;;;5066857;28;20542;-76
2023/05/18 11:21:49;;;;;;;13.57;5.50;;;;;;;;;;5065805;28;20034;-74
2023/05/18 11:24:17;;;;;;;14.68;4.55;;;;;;;;;;5068907;28;20130;-68
2023/05/18 11:26:48;;;;;;;9.13;5.97;;;;;;;;;;5089825;28;20034;-74
2023/05/18 11:29:17;;;;;;;11.18;4.72;;;;;;;;;;5080636;28;20067;-77
2023/05/18 11:31:43;;;;;;;11.00;5.60;;;;;;;;;;5080498;28;20039;-76
2023/05/18 11:34:27;;;;;;;9.25;5.57;;;;;;;;;;5068128;28;20033;-73
2023/05/18 11:36:54;;;;;;;13.30;5.72;;;;;;;;;;5078442;28;20059;-76
2023/05/18 11:39:23;;;;;;;13.02;5.43;;;;;;;;;;5067732;28;20053;-76
2023/05/18 11:42:09;;;;;;;14.63;5.85;;;;;;;;;;5080837;28;20881;-75
2023/05/18 11:44:34;;;;;;;10.93;5.22;;;;;;;;;;5074728;28;20608;-75
2023/05/18 11:47:03;;;;;;;8.73;4.93;;;;;;;;;;5073603;28;20024;-75
2023/05/18 11:49:35;;;;;;;11.18;5.28;;;;;;;;;;5084047;28;20028;-76
2023/05/18 11:52:03;;;;;;;13.23;5.57;;;;;;;;;;5085176;28;21604;-76
2023/05/18 11:54:45;;;;;;;11.68;5.38;;;;;;;;;;5095449;28;20028;-76
2023/05/18 11:57:12;;;;;;;13.05;5.10;;;;;;;;;;5101476;28;20015;-76
2023/05/18 11:59:44;;;;;;;13.23;6.07;;;;;;;;;;5100659;28;20024;-73
2023/05/18 12:02:10;;;;;;;13.60;6.43;;;;;;;;;;5098228;28;20019;-75
2023/05/18 12:04:43;;;;;;;8.32;5.55;;;;;;;;;;5073627;28;20093;-75
2023/05/18 12:07:09;;;;;;;10.32;5.63;;;;;;;;;;5090508;28;20024;-76
2023/05/18 12:09:34;;;;;;;11.48;5.75;;;;;;;;;;5094256;28;20077;-71
2023/05/18 12:12:00;;;;;;;9.85;6.03;;;;;;;;;;5081539;28;20016;-72
2023/05/18 12:14:26;;;;;;;13.20;6.47;;;;;;;;;;5091493;28;20129;-73
2023/05/18 12:16:52;;;;;;;12.95;6.93;;;;;;;;;;5099569;28;20036;-71
2023/05/18 12:19:18;;;;;;;12.38;5.90;;;;;;;;;;5100536;28;20493;-67
2023/05/18 12:21:43;;;;;;;12.00;6.35;;;;;;;;;;5076709;28;20146;-67
2023/05/18 12:24:09;;;;;;;8.10;5.28;;;;;;;;;;5094327;28;20462;-67
2023/05/18 12:26:34;;;;;;;13.13;6.10;;;;;;;;;;5110257;28;20496;-71
2023/05/18 12:29:00;;;;;;;11.80;6.82;;;;;;;;;;5108477;28;20030;-74
2023/05/18 12:31:26;;;;;;;14.70;7.03;;;;;;;;;;5108481;28;20051;-74
2023/05/18 12:33:54;;;;;;;12.20;6.63;;;;;;;;;;5109355;28;20035;-68
2023/05/18 12:36:19;;;;;;;12.25;5.97;;;;;;;;;;5106620;28;20035;-66
2023/05/18 12:38:50;;;;;;;11.13;6.57;;;;;;;;;;5089451;28;20424;-69
2023/05/18 12:41:25;;;;;;;11.15;7.32;;;;;;;;;;5103642;28;20277;-70
2023/05/18 12:43:53;;;;;;;10.07;6.20;;;;;;;;;;5106495;28;20480;-70
2023/05/18 12:46:19;;;;;;;12.48;5.63;;;;;;;;;;5098518;28;20027;-71
2023/05/18 12:48:48;;;;;;;10.95;6.45;;;;;;;;;;5094730;28;20384;-70
2023/05/18 12:51:16;;;;;;;8.95;6.85;;;;;;;;;;5100423;28;20132;-76
2023/05/18 12:53:42;;;;;;;10.45;6.00;;;;;;;;;;5094600;28;20026;-74
2023/05/18 12:56:10;;;;;;;12.32;6.63;;;;;;;;;;5101482;28;20020;-74
2023/05/18 12:58:35;;;;;;;8.52;5.38;;;;;;;;;;5089243;28;20028;-76
2023/05/18 13:01:06;;;;;;;11.63;5.75;;;;;;;;;;5102816;28;20026;-72
2023/05/18 13:03:32;;;;;;;7.80;5.30;;;;;;;;;;5102639;28;20073;-76
2023/05/18 13:06:03;;;;;;;14.30;5.95;;;;;;;;;;5105334;28;20051;-69
2023/05/18 13:08:30;;;;;;;8.38;5.53;;;;;;;;;;5094875;28;20026;-75
2023/05/18 13:10:59;;;;;;;13.30;5.07;;;;;;;;;;5102848;28;20032;-68
2023/05/18 13:13:24;;;;;;;8.68;5.40;;;;;;;;;;5110437;28;20036;-67
2023/05/18 13:15:49;;;;;;;15.10;6.07;;;;;;;;;;5109811;28;20085;-74
2023/05/18 13:18:15;;;;;;;8.02;5.28;;;;;;;;;;5100606;28;20265;-69
2023/05/18 13:20:47;;;;;;;7.65;5.47;;;;;;;;;;5105696;28;20382;-68
2023/05/18 13:23:14;;;;;;;9.75;4.78;;;;;;;;;;5096286;28;20019;-71
2023/05/18 13:25:39;;;;;;;11.48;5.20;;;;;;;;;;5095371;28;20032;-70
2023/05/18 13:28:05;;;;;;;11.93;5.32;;;;;;;;;;5106008;28;20167;-70
2023/05/18 13:30:31;;;;;;;8.10;4.97;;;;;;;;;;5082917;28;20523;-71
2023/05/18 13:32:57;;;;;;;10.63;5.55;;;;;;;;;;5089137;28;20040;-69
2023/05/18 13:35:23;;;;;;;10.18;5.88;;;;;;;;;;5090145;28;20032;-70
2023/05/18 13:37:49;;;;;;;9.88;5.28;;;;;;;;;;5070130;28;20076;-71
2023/05/18 13:40:15;;;;;;;11.48;5.35;;;;;;;;;;5090849;28;20585;-67
2023/05/18 13:42:40;;;;;;;14.10;5.53;;;;;;;;;;5095761;28;20026;-77
2023/05/18 13:45:06;;;;;;;10.70;5.05;;;;;;;;;;5101173;28;20374;-80
2023/05/18 13:47:31;;;;;;;10.13;4.97;;;;;;;;;;5087482;28;20050;-75
2023/05/18 13:49:56;;;;;;;14.97;5.03;;;;;;;;;;5106514;28;20019;-70
2023/05/18 13:52:21;;;;;;;13.02;4.32;;;;;;;;;;5095355;28;20324;-68
2023/05/18 13:54:47;;;;;;;9.37;5.47;;;;;;;;;;5097650;28;20492;-74
2023/05/18 13:57:13;;;;;;;10.45;5.75;;;;;;;;;;5101673;28;20297;-72
2023/05/18 13:59:38;;;;;;;8.20;5.63;;;;;;;;;;5106184;28;20437;-70
2023/05/18 14:02:03;;;;;;;7.18;4.82;;;;;;;;;;5108221;28;20023;-68
2023/05/18 14:04:28;;;;;;;10.90;5.88;;;;;;;;;;5109639;28;20497;-71
2023/05/18 14:06:54;;;;;;;11.07;5.60;;;;;;;;;;5091392;28;20032;-73
2023/05/18 14:09:20;;;;;;;13.27;5.72;;;;;;;;;;5109626;28;20482;-69
2023/05/18 14:11:46;;;;;;;11.45;5.15;;;;;;;;;;5110696;28;20030;-72
2023/05/18 14:14:11;;;;;;;15.05;5.88;;;;;;;;;;5095187;28;20028;-68
2023/05/18 14:16:36;;;;;;;18.03;5.37;;;;;;;;;;5101225;28;20057;-72
2023/05/18 14:19:02;;;;;;;8.73;4.93;;;;;;;;;;5104099;28;20277;-71
2023/05/18 14:21:27;;;;;;;15.30;6.03;;;;;;;;;;5110637;28;20062;-71
2023/05/18 14:23:52;;;;;;;11.77;5.43;;;;;;;;;;5104411;28;20051;-72
2023/05/18 14:26:17;;;;;;;9.73;5.23;;;;;;;;;;5108384;28;20028;-66